Data for 12/02/2005

Time Sea-Level Adjusted Pressure Absolute Pressure Temperature Relative Humidity Dew Point   
(mb) (inHg) (mb) (inHg) (C) (F) (%) (C) (F)
00:05 1002 29.59 831 24.54 -13.5 7.7 78 -16.6 2.1
00:10 1002 29.59 832 24.57 -13.4 7.8 78 -16.5 2.3
00:15 1002 29.59 832 24.57 -13.4 7.8 77 -16.6 2.2
00:20 1002 29.59 831 24.54 -13.5 7.8 77 -16.7 1.9
00:25 1002 29.59 831 24.54 -13.6 7.6 78 -16.6 2.1
00:30 1002 29.59 831 24.54 -13.6 7.5 77 -16.8 1.8
00:35 1002 29.59 831 24.54 -13.7 7.3 78 -16.8 1.7
00:40 1002 29.59 831 24.54 -13.7 7.4 78 -16.8 1.8
00:45 1002 29.59 831 24.54 -13.6 7.6 78 -16.6 2
00:50 1002 29.59 831 24.54 -13.6 7.5 77 -16.8 1.8
00:55 1002 29.59 831 24.54 -13.7 7.4 78 -16.8 1.7
01:00 1002 29.59 831 24.54 -13.6 7.5 77 -16.8 1.8
01:05 1002 29.59 831 24.54 -13.5 7.6 78 -16.6 2.1
01:10 1002 29.59 831 24.54 -13.6 7.5 76 -16.9 1.5
01:15 1002 29.59 831 24.54 -13.7 7.4 78 -16.7 2
01:20 1002 29.59 831 24.54 -13.6 7.5 79 -16.6 2.2
01:25 1002 29.59 831 24.54 -13.6 7.6 78 -16.6 2.1
01:30 1002 29.59 831 24.54 -13.7 7.4 78 -16.8 1.8
01:35 1002 29.59 831 24.54 -13.8 7.3 77 -17 1.3
01:40 1002 29.59 831 24.54 -13.8 7.2 78 -16.8 1.7
01:45 1002 29.59 831 24.54 -14 6.8 78 -17 1.4
01:50 1002 29.59 831 24.54 -14.1 6.7 78 -17.1 1.1
01:55 1002 29.59 831 24.54 -14 6.8 79 -17 1.4
02:00 1002 29.59 832 24.57 -14 6.8 79 -16.9 1.5
02:05 1003 29.62 832 24.57 -14.1 6.6 79 -17 1.4
02:10 1003 29.62 832 24.57 -14.2 6.4 78 -17.2 1
02:15 1003 29.62 832 24.57 -14.4 6.2 79 -17.3 0.8
02:20 1003 29.62 832 24.57 -14.5 5.9 79 -17.3 0.8
02:25 1003 29.62 832 24.57 -14.6 5.8 79 -17.5 0.5
02:30 1003 29.62 832 24.57 -14.6 5.7 79 -17.5 0.4
02:35 1003 29.62 832 24.57 -14.6 5.7 79 -17.5 0.5
02:40 1003 29.62 833 24.6 -14.6 5.6 79 -17.5 0.6
02:45 1004 29.65 833 24.6 -14.7 5.5 80 -17.4 0.7
02:50 1004 29.65 833 24.6 -14.7 5.6 82 -17.2 1.1
02:55 1004 29.65 833 24.6 -14.7 5.5 83 -17 1.4
03:00 1004 29.65 833 24.6 -14.8 5.3 83 -17.1 1.2
03:05 1004 29.65 833 24.6 -14.9 5.3 84 -17 1.5
03:10 1004 29.65 833 24.6 -14.9 5.2 85 -16.8 1.7
03:15 1004 29.65 833 24.6 -14.9 5.2 86 -16.7 1.9
03:20 1004 29.65 833 24.6 -14.8 5.3 86 -16.6 2.1
03:25 1004 29.65 833 24.6 -14.7 5.6 87 -16.4 2.5
03:30 1004 29.65 833 24.6 -14.4 6 87 -16.1 3
03:35 1004 29.65 833 24.6 -13.9 6.9 87 -15.7 3.8
03:40 1004 29.65 833 24.6 -13.6 7.6 87 -15.3 4.4
03:45 1004 29.65 833 24.6 -13.7 7.4 84 -15.7 3.7
03:50 1004 29.65 833 24.6 -14.2 6.4 86 -16.1 3.1
03:55 1004 29.65 833 24.6 -14.3 6.3 86 -16.1 3
04:00 1004 29.65 833 24.6 -14.3 6.3 87 -16 3.2
04:05 1004 29.65 833 24.6 -14.2 6.4 88 -15.8 3.6
04:10 1004 29.65 833 24.6 -14.1 6.7 89 -15.6 4
04:15 1004 29.65 833 24.6 -14 6.7 89 -15.5 4.2
04:20 1004 29.65 834 24.63 -13.9 7.1 91 -15.1 4.9
04:25 1004 29.65 834 24.63 -13.5 7.6 91 -14.7 5.5
04:30 1005 29.68 834 24.63 -13.4 8 91 -14.5 5.8
04:35 1004 29.65 834 24.63 -13.3 8.1 91 -14.5 6
04:40 1005 29.68 834 24.63 -13.1 8.4 91 -14.3 6.3
04:45 1005 29.68 834 24.63 -12.9 8.7 92 -14 6.8
04:50 1004 29.65 834 24.63 -12.7 9.1 91 -13.9 7.1
04:55 1004 29.65 834 24.63 -12.8 9 91 -14 6.8
05:00 1004 29.65 833 24.6 -12.9 8.8 91 -14.1 6.6
05:05 1004 29.65 833 24.6 -12.9 8.7 91 -14.1 6.6
05:10 1004 29.65 834 24.63 -13.1 8.5 89 -14.5 6
05:15 1004 29.65 834 24.63 -13.2 8.2 90 -14.6 5.8
05:20 1004 29.65 834 24.63 -13.3 8 90 -14.6 5.7
05:25 1005 29.68 834 24.63 -13.3 8 90 -14.7 5.6
05:30 1005 29.68 834 24.63 -13.5 7.8 89 -14.9 5.2
05:35 1005 29.68 834 24.63 -13.6 7.5 89 -15.1 4.9
05:40 1005 29.68 834 24.63 -13.7 7.4 90 -15 5
05:45 1005 29.68 834 24.63 -13.7 7.4 89 -15.1 4.9
05:50 1005 29.68 834 24.63 -13.7 7.4 89 -15.1 4.9
05:55 1005 29.68 834 24.63 -13.6 7.6 90 -14.9 5.2
06:00 1005 29.68 834 24.63 -13.5 7.7 90 -14.8 5.3
06:05 1005 29.68 834 24.63 -13.4 7.8 90 -14.8 5.4
06:10 1005 29.68 834 24.63 -13.3 8 90 -14.6 5.6
06:15 1005 29.68 834 24.63 -13.2 8.2 90 -14.6 5.8
06:20 1005 29.68 834 24.63 -13.1 8.3 90 -14.5 6
06:25 1005 29.68 834 24.63 -13.1 8.4 90 -14.5 6
06:30 1005 29.68 834 24.63 -13.1 8.4 90 -14.5 5.9
06:35 1005 29.68 834 24.63 -13 8.6 90 -14.3 6.3
06:40 1005 29.68 835 24.66 -12.9 8.7 89 -14.3 6.2
06:45 1005 29.68 834 24.63 -13 8.7 89 -14.4 6.2
06:50 1005 29.68 834 24.63 -12.9 8.8 89 -14.3 6.3
06:55 1005 29.68 834 24.63 -12.9 8.9 89 -14.3 6.3
07:00 1005 29.68 834 24.63 -12.9 8.8 90 -14.3 6.3
07:05 1005 29.68 834 24.63 -12.8 8.9 90 -14.2 6.5
07:10 1005 29.68 834 24.63 -12.9 8.9 90 -14.2 6.4
07:15 1005 29.68 834 24.63 -12.8 8.9 90 -14.1 6.5
07:20 1005 29.68 834 24.63 -12.8 8.9 90 -14.1 6.5
07:25 1005 29.68 834 24.63 -12.8 9 90 -14.1 6.6
07:30 1005 29.68 834 24.63 -12.7 9.2 89 -14.1 6.6
07:35 1005 29.68 834 24.63 -12.7 9.2 90 -14 6.8
07:40 1005 29.68 834 24.63 -12.5 9.6 90 -13.8 7.1
07:45 1005 29.68 834 24.63 -12.4 9.7 89 -13.8 7.2
07:50 1005 29.68 834 24.63 -12.3 10 89 -13.7 7.4
07:55 1005 29.68 834 24.63 -12.1 10.1 89 -13.6 7.5
08:00 1005 29.68 834 24.63 -12.1 10.2 89 -13.5 7.6
08:05 1005 29.68 834 24.63 -12 10.5 89 -13.4 7.9
08:10 1005 29.68 835 24.66 -11.8 10.8 89 -13.2 8.2
08:15 1005 29.68 835 24.66 -11.4 11.5 91 -12.7 9.2
08:20 1005 29.68 835 24.66 -11.1 12 87 -12.9 8.7
08:25 1005 29.68 834 24.63 -11.5 11.3 88 -13.1 8.5
08:30 1005 29.68 834 24.63 -11.5 11.4 90 -12.8 8.9
08:35 1005 29.68 834 24.63 -11.3 11.6 89 -12.8 9
08:40 1005 29.68 835 24.66 -11 12.1 88 -12.6 9.3
08:45 1005 29.68 835 24.66 -10.5 13.2 87 -12.2 10.1
08:50 1005 29.68 835 24.66 -9.9 14.1 84 -12.1 10.1
08:55 1005 29.68 835 24.66 -9.8 14.3 83 -12.2 10.1
09:00 1005 29.68 835 24.66 -10.4 13.3 85 -12.4 9.7
09:05 1005 29.68 835 24.66 -10.2 13.7 84 -12.4 9.7
09:10 1006 29.71 835 24.66 -10.2 13.6 86 -12.1 10.2
09:15 1006 29.71 835 24.66 -10 14.1 85 -12 10.4
09:20 1006 29.71 835 24.66 -10.2 13.6 85 -12.2 10
09:25 1006 29.71 835 24.66 -10.2 13.6 87 -12 10.3
09:30 1006 29.71 835 24.66 -10 14 86 -11.9 10.6
09:35 1006 29.71 835 24.66 -9.8 14.3 85 -11.9 10.6
09:40 1006 29.71 835 24.66 -9.6 14.7 84 -11.8 10.7
09:45 1006 29.71 835 24.66 -9.4 15.1 83 -11.8 10.7
09:50 1006 29.71 835 24.66 -9.5 14.9 83 -11.9 10.6
09:55 1006 29.71 835 24.66 -9.5 14.9 82 -12 10.3
10:00 1006 29.71 835 24.66 -10.1 13.9 85 -12.2 10.1
10:05 1006 29.71 835 24.66 -9.7 14.5 83 -12.1 10.3
10:10 1006 29.71 835 24.66 -9.4 15.1 82 -11.9 10.6
10:15 1006 29.71 835 24.66 -9.3 15.2 81 -12 10.4
10:20 1006 29.71 835 24.66 -8.9 16 80 -11.8 10.8
10:25 1006 29.71 836 24.69 -8.8 16.2 80 -11.7 11
10:30 1006 29.71 836 24.69 -8.7 16.4 77 -12 10.4
10:35 1006 29.71 836 24.69 -8.6 16.4 77 -11.9 10.6
10:40 1006 29.71 836 24.69 -8 17.6 75 -11.7 10.9
10:45 1006 29.71 836 24.69 -8 17.7 75 -11.6 11.1
10:50 1006 29.71 836 24.69 -7.8 18 72 -12 10.5
10:55 1006 29.71 836 24.69 -7.5 18.6 69 -12.2 10.1
11:00 1007 29.74 836 24.69 -7.1 19.3 70 -11.7 11
11:05 1007 29.74 836 24.69 -6.5 20.3 68 -11.4 11.4
11:10 1007 29.74 836 24.69 -6.5 20.3 67 -11.6 11.1
11:15 1007 29.74 836 24.69 -7.2 19 70 -11.8 10.8
11:20 1007 29.74 836 24.69 -7.2 19.1 70 -11.7 11
11:25 1007 29.74 836 24.69 -6.8 19.8 69 -11.5 11.3
11:30 1007 29.74 836 24.69 -7.1 19.2 71 -11.5 11.3
11:35 1007 29.74 836 24.69 -7.6 18.3 70 -12.1 10.2
11:40 1007 29.74 836 24.69 -8.4 16.9 74 -12.2 10
11:45 1007 29.74 836 24.69 -8.4 16.8 75 -12.1 10.3
11:50 1007 29.74 836 24.69 -9.1 15.5 79 -12.1 10.2
11:55 1007 29.74 836 24.69 -9.7 14.6 81 -12.3 9.8
12:00 1007 29.74 836 24.69 -9.4 15 82 -12 10.3
12:05 1007 29.74 836 24.69 -9.2 15.4 85 -11.3 11.6
12:10 1007 29.74 836 24.69 -8.9 15.9 81 -11.6 11.1
12:15 1007 29.74 836 24.69 -9 15.8 81 -11.6 11
12:20 1007 29.74 836 24.69 -8.7 16.4 82 -11.2 11.9
12:25 1007 29.74 836 24.69 -8.4 16.9 82 -11 12.2
12:30 1007 29.74 836 24.69 -8.3 17.2 81 -11 12.3
12:35 1007 29.74 836 24.69 -8.7 16.3 83 -11.1 12.1
12:40 1007 29.74 836 24.69 -9.7 14.5 88 -11.3 11.6
12:45 1007 29.74 837 24.72 -9.4 15.2 90 -10.7 12.7
12:50 1007 29.74 836 24.69 -8.9 15.9 88 -10.6 12.8
12:55 1007 29.74 836 24.69 -9.1 15.6 86 -11 12.3
13:00 1007 29.74 836 24.69 -9.1 15.6 84 -11.4 11.5
13:05 1007 29.74 836 24.69 -9.5 15 85 -11.6 11.1
13:10 1007 29.74 836 24.69 -9.4 15.1 85 -11.5 11.3
13:15 1007 29.74 836 24.69 -9.3 15.2 84 -11.5 11.3
13:20 1007 29.74 836 24.69 -9.3 15.2 84 -11.6 11.1
13:25 1007 29.74 836 24.69 -9.4 15.1 85 -11.4 11.4
13:30 1007 29.74 836 24.69 -9.1 15.7 85 -11.1 11.9
13:35 1007 29.74 836 24.69 -9 15.9 84 -11.1 12
13:40 1007 29.74 836 24.69 -8.8 16.2 84 -11 12.2
13:45 1007 29.74 836 24.69 -8.3 17 83 -10.6 12.8
13:50 1007 29.74 836 24.69 -8.2 17.3 83 -10.5 13.1
13:55 1007 29.74 836 24.69 -8.1 17.5 84 -10.3 13.5
14:00 1007 29.74 836 24.69 -7.7 18.2 83 -10 13.9
14:05 1007 29.74 836 24.69 -6.6 20.1 80 -9.5 14.9
14:10 1007 29.74 836 24.69 -5.4 22.3 75 -9.1 15.5
14:15 1007 29.74 836 24.69 -4.7 23.5 72 -9 15.8
14:20 1007 29.74 836 24.69 -5.3 22.4 75 -9 15.7
14:25 1007 29.74 836 24.69 -5.4 22.2 75 -9.2 15.5
14:30 1007 29.74 836 24.69 -5.2 22.7 76 -8.8 16.1
14:35 1007 29.74 836 24.69 -5.1 22.8 74 -9.1 15.6
14:40 1007 29.74 836 24.69 -4.9 23.2 74 -8.8 16.1
14:45 1007 29.74 836 24.69 -4.8 23.3 74 -8.8 16.2
14:50 1007 29.74 836 24.69 -4.6 23.8 73 -8.6 16.5
14:55 1007 29.74 836 24.69 -4.5 23.9 74 -8.4 16.8
15:00 1007 29.74 836 24.69 -4 24.7 73 -8.2 17.3
15:05 1007 29.74 836 24.69 -3.9 24.9 71 -8.5 16.7
15:10 1007 29.74 836 24.69 -6.2 20.8 77 -9.6 14.8
15:15 1007 29.74 836 24.69 -7.1 19.2 79 -10.2 13.6
15:20 1007 29.74 836 24.69 -7.4 18.6 79 -10.5 13.1
15:25 1007 29.74 836 24.69 -8 17.6 81 -10.7 12.7
15:30 1007 29.74 836 24.69 -8 17.7 83 -10.4 13.3
15:35 1007 29.74 836 24.69 -8.4 17 84 -10.6 13
15:40 1007 29.74 836 24.69 -8.4 16.9 84 -10.6 12.9
15:45 1007 29.74 836 24.69 -7.8 17.9 79 -10.8 12.6
15:50 1007 29.74 836 24.69 -7 19.3 78 -10.3 13.5
15:55 1007 29.74 836 24.69 -6.9 19.7 79 -9.9 14.2
16:00 1007 29.74 836 24.69 -7.5 18.4 83 -9.9 14.1
16:05 1007 29.74 836 24.69 -7.9 17.9 83 -10.2 13.6
16:10 1007 29.74 836 24.69 -7.5 18.6 82 -10 14
16:15 1007 29.74 836 24.69 -6.9 19.6 81 -9.6 14.7
16:20 1007 29.74 836 24.69 -6.6 20.2 86 -8.6 16.5
16:25 1007 29.74 836 24.69 -5.9 21.4 82 -8.5 16.6
16:30 1007 29.74 836 24.69 -5.9 21.4 80 -8.9 16
16:35 1007 29.74 836 24.69 -6.2 20.9 85 -8.3 17
16:40 1007 29.74 836 24.69 -6 21.1 79 -9.1 15.7
16:45 1007 29.74 836 24.69 -6.4 20.5 83 -8.8 16.1
16:50 1007 29.74 836 24.69 -7.1 19.3 84 -9.4 15.2
16:55 1007 29.74 836 24.69 -7.6 18.3 87 -9.4 15.1
17:00 1007 29.74 837 24.72 -7.9 17.9 89 -9.4 15.2
17:05 1007 29.74 837 24.72 -7.9 17.8 89 -9.4 15
17:10 1007 29.74 837 24.72 -7.9 17.8 86 -9.8 14.4
17:15 1008 29.77 837 24.72 -8.1 17.5 89 -9.5 14.9
17:20 1007 29.74 837 24.72 -8 17.6 88 -9.7 14.6
17:25 1007 29.74 837 24.72 -7.8 18 90 -9.1 15.6
17:30 1008 29.77 837 24.72 -7.8 18 88 -9.4 15
17:35 1008 29.77 837 24.72 -7.5 18.4 86 -9.5 14.9
17:40 1008 29.77 837 24.72 -7.2 19 93 -8.2 17.2
17:45 1008 29.77 837 24.72 -7 19.3 85 -9.2 15.4
17:50 1008 29.77 837 24.72 -7.5 18.5 86 -9.4 15.1
17:55 1008 29.77 837 24.72 -8 17.7 88 -9.6 14.8
18:00 1008 29.77 837 24.72 -7.9 17.8 89 -9.4 15
18:05 1008 29.77 837 24.72 -8 17.7 91 -9.2 15.4
18:10 1008 29.77 837 24.72 -7.4 18.7 88 -9.1 15.6
18:15 1008 29.77 837 24.72 -7.3 18.8 86 -9.3 15.3
18:20 1008 29.77 837 24.72 -7.5 18.4 86 -9.5 14.9
18:25 1008 29.77 837 24.72 -7.7 18.1 85 -9.9 14.3
18:30 1008 29.77 837 24.72 -8.5 16.7 85 -10.6 13
18:35 1008 29.77 837 24.72 -8.8 16.2 89 -10.3 13.4
18:40 1008 29.77 837 24.72 -8.2 17.3 89 -9.7 14.6
18:45 1008 29.77 837 24.72 -7.8 18 87 -9.5 14.9
18:50 1008 29.77 837 24.72 -7.3 18.8 86 -9.3 15.3
18:55 1008 29.77 837 24.72 -7.1 19.2 84 -9.3 15.2
19:00 1008 29.77 837 24.72 -6.9 19.6 83 -9.4 15.1
19:05 1008 29.77 837 24.72 -6.7 20 78 -9.8 14.3
19:10 1008 29.77 837 24.72 -6.6 20.1 80 -9.6 14.8
19:15 1008 29.77 837 24.72 -6.8 19.8 79 -9.8 14.4
19:20 1008 29.77 837 24.72 -6.6 20.2 76 -10.1 13.7
19:25 1008 29.77 837 24.72 -6.3 20.6 76 -9.9 14.1
19:30 1008 29.77 837 24.72 -6.5 20.2 76 -10.1 13.9
19:35 1008 29.77 837 24.72 -6.2 20.8 72 -10.5 13.1
19:40 1008 29.77 837 24.72 -6 21.1 74 -9.9 14.1
19:45 1008 29.77 837 24.72 -6.2 20.9 78 -9.5 14.9
19:50 1008 29.77 837 24.72 -6.3 20.6 78 -9.6 14.7
19:55 1008 29.77 837 24.72 -6.2 20.9 78 -9.4 15
20:00 1008 29.77 837 24.72 -6.2 20.9 78 -9.5 14.9
20:05 1008 29.77 837 24.72 -6.1 21 74 -10 14
20:10 1008 29.77 837 24.72 -5.9 21.3 73 -10.1 13.9
20:15 1008 29.77 837 24.72 -6.1 21.1 73 -10.1 13.8
20:20 1008 29.77 837 24.72 -6.3 20.6 74 -10.1 13.8
20:25 1008 29.77 837 24.72 -5.9 21.4 67 -11.2 11.9
20:30 1008 29.77 837 24.72 -5.5 22.1 69 -10.3 13.5
20:35 1008 29.77 837 24.72 -5.6 21.9 71 -10.1 13.8
20:40 1008 29.77 837 24.72 -5.7 21.8 65 -11.2 11.9
20:45 1008 29.77 837 24.72 -5.1 22.9 65 -10.7 12.7
20:50 1008 29.77 837 24.72 -5.1 22.8 63 -11.1 12
20:55 1008 29.77 837 24.72 -5 23 64 -10.8 12.6
21:00 1008 29.77 837 24.72 -4.8 23.4 58 -11.9 10.6
21:05 1008 29.77 837 24.72 -4.5 23.9 52 -12.9 8.9
21:10 1008 29.77 837 24.72 -4.1 24.6 58 -11.3 11.7
21:15 1008 29.77 837 24.72 -4.3 24.3 51 -13 8.6
21:20 1008 29.77 837 24.72 -4.2 24.5 51 -12.9 8.7
21:25 1008 29.77 837 24.72 -4.4 24.2 55 -12.1 10.2
21:30 1008 29.77 837 24.72 -4.8 23.3 57 -12.1 10.2
21:35 1008 29.77 837 24.72 -5.3 22.5 60 -11.8 10.7
21:40 1008 29.77 837 24.72 -5.5 22.2 59 -12.3 9.9
21:45 1008 29.77 837 24.72 -5.6 22 60 -12.2 10
21:50 1008 29.77 837 24.72 -5.5 22 60 -12.1 10.1
21:55 1008 29.77 837 24.72 -5.6 21.9 57 -12.9 8.8
22:00 1008 29.77 837 24.72 -5.7 21.7 59 -12.5 9.5
22:05 1008 29.77 837 24.72 -6.2 20.9 61 -12.6 9.4
22:10 1008 29.77 837 24.72 -6.5 20.2 63 -12.4 9.7
22:15 1008 29.77 837 24.72 -7.2 19 69 -12.1 10.3
22:20 1008 29.77 837 24.72 -7.9 17.7 67 -13.1 8.4
22:25 1008 29.77 837 24.72 -8 17.7 66 -13.3 8.1
22:30 1008 29.77 837 24.72 -7.9 17.7 66 -13.2 8.3
22:35 1008 29.77 837 24.72 -8 17.6 67 -13.1 8.4
22:40 1008 29.77 837 24.72 -7.8 18.1 66 -13 8.6
22:45 1008 29.77 837 24.72 -7.7 18.2 67 -12.7 9.1
22:50 1008 29.77 837 24.72 -7.6 18.4 66 -12.9 8.8
22:55 1008 29.77 837 24.72 -7.3 18.9 66 -12.6 9.4
23:00 1008 29.77 837 24.72 -7.1 19.2 66 -12.3 9.8
23:05 1008 29.77 838 24.75 -7 19.5 66 -12.4 9.8
23:10 1008 29.77 838 24.75 -7 19.4 66 -12.3 9.9
23:15 1008 29.77 838 24.75 -7.1 19.2 67 -12.3 9.8
23:20 1008 29.77 838 24.75 -7.1 19.3 67 -12.2 10.1
23:25 1008 29.77 838 24.75 -6.8 19.7 64 -12.6 9.4
23:30 1008 29.77 838 24.75 -6.9 19.6 65 -12.3 9.8
23:35 1008 29.77 838 24.75 -7.4 18.8 67 -12.4 9.7
23:40 1008 29.77 838 24.75 -7.4 18.6 67 -12.5 9.5
23:45 1008 29.77 838 24.75 -7.8 18 70 -12.3 9.9
23:50 1008 29.77 838 24.75 -8.1 17.3 70 -12.6 9.3
23:55 1008 29.77 838 24.75 -7.9 17.9 68 -12.7 9.1
24:00 1008 29.77 838 24.75 -7.5 18.4 66 -12.8 9